sensor_id;sensor_type;location;lat;lon;timestamp;temperature;humidity
56046;DHT22;41913;51.030;3.706;2022-09-27T00:00:02;11.70;99.90
56046;DHT22;41913;51.030;3.706;2022-09-27T00:02:28;11.80;99.90
56046;DHT22;41913;51.030;3.706;2022-09-27T00:04:56;11.70;99.90
56046;DHT22;41913;51.030;3.706;2022-09-27T00:07:23;11.50;99.90
56046;DHT22;41913;51.030;3.706;2022-09-27T00:09:49;11.40;99.90
56046;DHT22;41913;51.030;3.706;2022-09-27T00:12:15;11.30;99.90
56046;DHT22;41913;51.030;3.706;2022-09-27T00:14:41;11.40;99.90
56046;DHT22;41913;51.030;3.706;2022-09-27T00:17:08;11.30;99.90
56046;DHT22;41913;51.030;3.706;2022-09-27T00:19:33;11.20;99.90
56046;DHT22;41913;51.030;3.706;2022-09-27T00:22:00;11.10;99.90
56046;DHT22;41913;51.030;3.706;2022-09-27T00:24:26;11.10;99.90
56046;DHT22;41913;51.030;3.706;2022-09-27T00:26:51;11.10;99.90
56046;DHT22;41913;51.030;3.706;2022-09-27T00:29:19;11.10;99.90
56046;DHT22;41913;51.030;3.706;2022-09-27T00:31:44;11.20;99.90
56046;DHT22;41913;51.030;3.706;2022-09-27T00:34:17;11.40;99.90
56046;DHT22;41913;51.030;3.706;2022-09-27T00:36:44;11.60;99.90
56046;DHT22;41913;51.030;3.706;2022-09-27T00:39:10;11.50;99.90
56046;DHT22;41913;51.030;3.706;2022-09-27T00:41:36;11.50;99.90
56046;DHT22;41913;51.030;3.706;2022-09-27T00:44:05;11.50;99.90
56046;DHT22;41913;51.030;3.706;2022-09-27T00:47:12;11.30;99.90
56046;DHT22;41913;51.030;3.706;2022-09-27T00:49:49;11.30;99.90
56046;DHT22;41913;51.030;3.706;2022-09-27T00:52:40;11.50;99.90
56046;DHT22;41913;51.030;3.706;2022-09-27T00:55:10;11.50;99.90
56046;DHT22;41913;51.030;3.706;2022-09-27T00:57:39;11.50;99.90
56046;DHT22;41913;51.030;3.706;2022-09-27T01:00:08;11.40;99.90
56046;DHT22;41913;51.030;3.706;2022-09-27T01:02:34;11.30;99.90
56046;DHT22;41913;51.030;3.706;2022-09-27T01:05:01;11.50;99.90
56046;DHT22;41913;51.030;3.706;2022-09-27T01:07:29;11.40;99.90
56046;DHT22;41913;51.030;3.706;2022-09-27T01:15:17;11.20;99.90
56046;DHT22;41913;51.030;3.706;2022-09-27T01:23:10;11.30;99.90
56046;DHT22;41913;51.030;3.706;2022-09-27T01:30:47;11.40;99.90
56046;DHT22;41913;51.030;3.706;2022-09-27T01:33:28;11.60;99.90
56046;DHT22;41913;51.030;3.706;2022-09-27T01:38:55;11.60;99.90
56046;DHT22;41913;51.030;3.706;2022-09-27T01:41:38;11.50;99.90
56046;DHT22;41913;51.030;3.706;2022-09-27T01:44:14;11.50;99.90
56046;DHT22;41913;51.030;3.706;2022-09-27T01:46:47;11.70;99.90
56046;DHT22;41913;51.030;3.706;2022-09-27T01:49:16;11.90;99.90
56046;DHT22;41913;51.030;3.706;2022-09-27T01:51:52;11.70;99.90
56046;DHT22;41913;51.030;3.706;2022-09-27T01:54:23;11.80;99.90
56046;DHT22;41913;51.030;3.706;2022-09-27T01:56:50;12.00;99.90
56046;DHT22;41913;51.030;3.706;2022-09-27T02:02:02;12.20;99.90
56046;DHT22;41913;51.030;3.706;2022-09-27T02:04:30;12.10;99.90
56046;DHT22;41913;51.030;3.706;2022-09-27T02:07:00;12.30;99.90
56046;DHT22;41913;51.030;3.706;2022-09-27T02:09:32;12.20;99.90
56046;DHT22;41913;51.030;3.706;2022-09-27T02:12:02;12.10;99.90
56046;DHT22;41913;51.030;3.706;2022-09-27T02:14:32;11.90;99.90
56046;DHT22;41913;51.030;3.706;2022-09-27T02:17:22;11.90;99.90
56046;DHT22;41913;51.030;3.706;2022-09-27T02:19:53;12.10;99.90
56046;DHT22;41913;51.030;3.706;2022-09-27T02:22:31;12.10;99.90
56046;DHT22;41913;51.030;3.706;2022-09-27T02:25:01;12.10;99.90
56046;DHT22;41913;51.030;3.706;2022-09-27T02:27:36;12.20;99.90
56046;DHT22;41913;51.030;3.706;2022-09-27T02:30:08;12.20;99.90
56046;DHT22;41913;51.030;3.706;2022-09-27T02:32:34;12.10;99.90
56046;DHT22;41913;51.030;3.706;2022-09-27T02:35:03;12.10;99.90
56046;DHT22;41913;51.030;3.706;2022-09-27T02:37:30;12.20;99.90
56046;DHT22;41913;51.030;3.706;2022-09-27T02:39:58;12.40;99.90
56046;DHT22;41913;51.030;3.706;2022-09-27T02:42:23;12.20;99.90
56046;DHT22;41913;51.030;3.706;2022-09-27T02:44:50;12.20;99.90
56046;DHT22;41913;51.030;3.706;2022-09-27T02:47:23;12.20;99.90
56046;DHT22;41913;51.030;3.706;2022-09-27T02:49:54;12.10;99.90
56046;DHT22;41913;51.030;3.706;2022-09-27T02:54:56;12.10;99.90
56046;DHT22;41913;51.030;3.706;2022-09-27T03:00:24;12.30;99.90
56046;DHT22;41913;51.030;3.706;2022-09-27T03:02:54;12.20;99.90
56046;DHT22;41913;51.030;3.706;2022-09-27T03:05:24;12.20;99.90
56046;DHT22;41913;51.030;3.706;2022-09-27T03:07:50;12.30;99.90
56046;DHT22;41913;51.030;3.706;2022-09-27T03:10:27;12.20;99.90
56046;DHT22;41913;51.030;3.706;2022-09-27T03:12:53;12.10;99.90
56046;DHT22;41913;51.030;3.706;2022-09-27T03:15:20;12.10;99.90
56046;DHT22;41913;51.030;3.706;2022-09-27T03:17:45;12.30;99.90
56046;DHT22;41913;51.030;3.706;2022-09-27T03:20:12;12.30;99.90
56046;DHT22;41913;51.030;3.706;2022-09-27T03:22:38;12.00;99.90
56046;DHT22;41913;51.030;3.706;2022-09-27T03:25:05;11.70;99.90
56046;DHT22;41913;51.030;3.706;2022-09-27T03:27:31;11.50;99.90
56046;DHT22;41913;51.030;3.706;2022-09-27T03:29:56;11.50;99.90
56046;DHT22;41913;51.030;3.706;2022-09-27T03:32:25;11.30;99.90
56046;DHT22;41913;51.030;3.706;2022-09-27T03:34:51;11.40;99.90
56046;DHT22;41913;51.030;3.706;2022-09-27T03:37:20;11.50;99.90
56046;DHT22;41913;51.030;3.706;2022-09-27T03:39:46;11.60;99.90
56046;DHT22;41913;51.030;3.706;2022-09-27T03:42:12;11.60;99.90
56046;DHT22;41913;51.030;3.706;2022-09-27T03:44:38;11.60;99.90
56046;DHT22;41913;51.030;3.706;2022-09-27T03:47:04;11.50;99.90
56046;DHT22;41913;51.030;3.706;2022-09-27T03:49:29;11.60;99.90
56046;DHT22;41913;51.030;3.706;2022-09-27T03:51:57;11.60;99.90
56046;DHT22;41913;51.030;3.706;2022-09-27T03:54:24;11.50;99.90
56046;DHT22;41913;51.030;3.706;2022-09-27T03:56:50;11.50;99.90
56046;DHT22;41913;51.030;3.706;2022-09-27T03:59:23;11.40;99.90
56046;DHT22;41913;51.030;3.706;2022-09-27T04:01:48;11.10;99.90
56046;DHT22;41913;51.030;3.706;2022-09-27T04:04:15;11.10;99.90
56046;DHT22;41913;51.030;3.706;2022-09-27T04:06:41;10.90;99.90
56046;DHT22;41913;51.030;3.706;2022-09-27T04:09:07;10.60;99.90
56046;DHT22;41913;51.030;3.706;2022-09-27T04:11:34;10.70;99.90
56046;DHT22;41913;51.030;3.706;2022-09-27T04:14:00;10.70;99.90
56046;DHT22;41913;51.030;3.706;2022-09-27T04:16:26;10.70;99.90
56046;DHT22;41913;51.030;3.706;2022-09-27T04:18:52;10.80;99.90
56046;DHT22;41913;51.030;3.706;2022-09-27T04:21:19;10.90;99.90
56046;DHT22;41913;51.030;3.706;2022-09-27T04:23:45;10.90;99.90
56046;DHT22;41913;51.030;3.706;2022-09-27T04:26:13;10.90;99.90
56046;DHT22;41913;51.030;3.706;2022-09-27T04:28:39;10.50;99.90
56046;DHT22;41913;51.030;3.706;2022-09-27T04:31:05;10.20;99.90
56046;DHT22;41913;51.030;3.706;2022-09-27T04:33:32;10.20;99.90
56046;DHT22;41913;51.030;3.706;2022-09-27T04:35:58;10.20;99.90
56046;DHT22;41913;51.030;3.706;2022-09-27T04:38:42;10.20;99.90
56046;DHT22;41913;51.030;3.706;2022-09-27T04:41:09;10.30;99.90
56046;DHT22;41913;51.030;3.706;2022-09-27T04:43:39;10.40;99.90
56046;DHT22;41913;51.030;3.706;2022-09-27T04:48:37;10.20;99.90
56046;DHT22;41913;51.030;3.706;2022-09-27T04:51:04;10.10;99.90
56046;DHT22;41913;51.030;3.706;2022-09-27T04:53:31;10.10;99.90
56046;DHT22;41913;51.030;3.706;2022-09-27T04:55:58;10.10;99.90
56046;DHT22;41913;51.030;3.706;2022-09-27T04:58:29;10.20;99.90
56046;DHT22;41913;51.030;3.706;2022-09-27T05:00:55;10.20;99.90
56046;DHT22;41913;51.030;3.706;2022-09-27T05:03:21;10.20;99.90
56046;DHT22;41913;51.030;3.706;2022-09-27T05:05:48;10.20;99.90
56046;DHT22;41913;51.030;3.706;2022-09-27T05:08:13;10.20;99.90
56046;DHT22;41913;51.030;3.706;2022-09-27T05:10:40;10.10;99.90
56046;DHT22;41913;51.030;3.706;2022-09-27T05:15:36;10.20;99.90
56046;DHT22;41913;51.030;3.706;2022-09-27T05:18:04;10.20;99.90
56046;DHT22;41913;51.030;3.706;2022-09-27T05:20:31;10.20;99.90
56046;DHT22;41913;51.030;3.706;2022-09-27T05:22:56;10.10;99.90
56046;DHT22;41913;51.030;3.706;2022-09-27T05:25:22;10.20;99.90
56046;DHT22;41913;51.030;3.706;2022-09-27T05:27:54;10.30;99.90
56046;DHT22;41913;51.030;3.706;2022-09-27T05:30:23;10.30;99.90
56046;DHT22;41913;51.030;3.706;2022-09-27T05:32:55;10.20;99.90
56046;DHT22;41913;51.030;3.706;2022-09-27T05:38:24;10.10;99.90
56046;DHT22;41913;51.030;3.706;2022-09-27T05:40:51;10.20;99.90
56046;DHT22;41913;51.030;3.706;2022-09-27T05:43:18;10.00;99.90
56046;DHT22;41913;51.030;3.706;2022-09-27T05:45:48;10.20;99.90
56046;DHT22;41913;51.030;3.706;2022-09-27T05:48:17;10.20;99.90
56046;DHT22;41913;51.030;3.706;2022-09-27T05:50:44;10.30;99.90
56046;DHT22;41913;51.030;3.706;2022-09-27T05:53:09;10.40;99.90
56046;DHT22;41913;51.030;3.706;2022-09-27T05:55:36;10.40;99.90
56046;DHT22;41913;51.030;3.706;2022-09-27T05:58:03;10.40;99.90
56046;DHT22;41913;51.030;3.706;2022-09-27T06:00:29;10.50;99.90
56046;DHT22;41913;51.030;3.706;2022-09-27T06:02:57;10.40;99.90
56046;DHT22;41913;51.030;3.706;2022-09-27T06:05:23;10.50;99.90
56046;DHT22;41913;51.030;3.706;2022-09-27T06:07:49;10.60;99.90
56046;DHT22;41913;51.030;3.706;2022-09-27T06:10:17;10.70;99.90
56046;DHT22;41913;51.030;3.706;2022-09-27T06:12:42;10.80;99.90
56046;DHT22;41913;51.030;3.706;2022-09-27T06:15:08;10.80;99.90
56046;DHT22;41913;51.030;3.706;2022-09-27T06:17:34;10.60;99.90
56046;DHT22;41913;51.030;3.706;2022-09-27T06:20:12;10.60;99.90
56046;DHT22;41913;51.030;3.706;2022-09-27T06:22:45;10.70;99.90
56046;DHT22;41913;51.030;3.706;2022-09-27T06:25:13;10.70;99.90
56046;DHT22;41913;51.030;3.706;2022-09-27T06:30:10;10.60;99.90
56046;DHT22;41913;51.030;3.706;2022-09-27T06:32:37;10.50;99.90
56046;DHT22;41913;51.030;3.706;2022-09-27T06:35:03;10.40;99.90
56046;DHT22;41913;51.030;3.706;2022-09-27T06:37:30;10.40;99.90
56046;DHT22;41913;51.030;3.706;2022-09-27T06:39:56;10.40;99.90
56046;DHT22;41913;51.030;3.706;2022-09-27T06:42:22;10.40;99.90
56046;DHT22;41913;51.030;3.706;2022-09-27T06:44:50;10.40;99.90
56046;DHT22;41913;51.030;3.706;2022-09-27T06:47:17;10.50;99.90
56046;DHT22;41913;51.030;3.706;2022-09-27T06:52:12;10.50;99.90
56046;DHT22;41913;51.030;3.706;2022-09-27T06:54:37;10.50;99.90
56046;DHT22;41913;51.030;3.706;2022-09-27T06:57:03;10.40;99.90
56046;DHT22;41913;51.030;3.706;2022-09-27T06:59:30;10.60;99.90
56046;DHT22;41913;51.030;3.706;2022-09-27T07:02:15;10.60;99.90
56046;DHT22;41913;51.030;3.706;2022-09-27T07:04:41;10.50;99.90
56046;DHT22;41913;51.030;3.706;2022-09-27T07:07:08;10.50;99.90
56046;DHT22;41913;51.030;3.706;2022-09-27T07:09:34;10.40;99.90
56046;DHT22;41913;51.030;3.706;2022-09-27T07:12:03;10.40;99.90
56046;DHT22;41913;51.030;3.706;2022-09-27T07:14:28;10.40;99.90
56046;DHT22;41913;51.030;3.706;2022-09-27T07:16:54;10.40;99.90
56046;DHT22;41913;51.030;3.706;2022-09-27T07:19:21;10.40;99.90
56046;DHT22;41913;51.030;3.706;2022-09-27T07:21:49;10.40;99.90
56046;DHT22;41913;51.030;3.706;2022-09-27T07:24:16;10.40;99.90
56046;DHT22;41913;51.030;3.706;2022-09-27T07:26:46;10.30;99.90
56046;DHT22;41913;51.030;3.706;2022-09-27T07:29:13;10.30;99.90
56046;DHT22;41913;51.030;3.706;2022-09-27T07:31:40;10.30;99.90
56046;DHT22;41913;51.030;3.706;2022-09-27T07:34:08;10.30;99.90
56046;DHT22;41913;51.030;3.706;2022-09-27T07:36:36;10.20;99.90
56046;DHT22;41913;51.030;3.706;2022-09-27T07:39:01;10.30;99.90
56046;DHT22;41913;51.030;3.706;2022-09-27T07:41:28;10.40;99.90
56046;DHT22;41913;51.030;3.706;2022-09-27T07:43:55;10.40;99.90
56046;DHT22;41913;51.030;3.706;2022-09-27T07:46:22;10.40;99.90
56046;DHT22;41913;51.030;3.706;2022-09-27T07:48:49;10.40;99.90
56046;DHT22;41913;51.030;3.706;2022-09-27T07:51:15;10.50;99.90
56046;DHT22;41913;51.030;3.706;2022-09-27T07:53:43;10.50;99.90
56046;DHT22;41913;51.030;3.706;2022-09-27T07:56:08;10.60;99.90
56046;DHT22;41913;51.030;3.706;2022-09-27T07:58:34;10.60;99.90
56046;DHT22;41913;51.030;3.706;2022-09-27T08:01:02;10.70;99.90
56046;DHT22;41913;51.030;3.706;2022-09-27T08:06:00;10.90;99.90
56046;DHT22;41913;51.030;3.706;2022-09-27T08:08:26;10.80;99.90
56046;DHT22;41913;51.030;3.706;2022-09-27T08:10:52;10.90;99.90
56046;DHT22;41913;51.030;3.706;2022-09-27T08:13:18;11.00;99.90
56046;DHT22;41913;51.030;3.706;2022-09-27T08:15:45;11.10;99.90
56046;DHT22;41913;51.030;3.706;2022-09-27T08:18:11;11.20;99.90
56046;DHT22;41913;51.030;3.706;2022-09-27T08:20:37;11.30;99.90
56046;DHT22;41913;51.030;3.706;2022-09-27T08:23:06;11.50;99.90
56046;DHT22;41913;51.030;3.706;2022-09-27T08:25:31;11.70;99.90
56046;DHT22;41913;51.030;3.706;2022-09-27T08:27:58;11.80;99.90
56046;DHT22;41913;51.030;3.706;2022-09-27T08:30:26;11.80;99.90
56046;DHT22;41913;51.030;3.706;2022-09-27T08:32:56;11.70;99.90
56046;DHT22;41913;51.030;3.706;2022-09-27T08:35:21;11.60;99.90
56046;DHT22;41913;51.030;3.706;2022-09-27T08:37:53;11.60;99.90
56046;DHT22;41913;51.030;3.706;2022-09-27T08:40:19;11.70;99.90
56046;DHT22;41913;51.030;3.706;2022-09-27T08:43:05;11.80;99.90
56046;DHT22;41913;51.030;3.706;2022-09-27T08:45:37;12.00;99.90
56046;DHT22;41913;51.030;3.706;2022-09-27T08:48:05;12.20;99.90
56046;DHT22;41913;51.030;3.706;2022-09-27T08:50:36;12.20;99.90
56046;DHT22;41913;51.030;3.706;2022-09-27T08:55:42;12.50;99.90
56046;DHT22;41913;51.030;3.706;2022-09-27T08:58:12;12.50;99.90
56046;DHT22;41913;51.030;3.706;2022-09-27T09:00:39;12.60;99.90
56046;DHT22;41913;51.030;3.706;2022-09-27T09:03:08;12.80;99.90
56046;DHT22;41913;51.030;3.706;2022-09-27T09:05:40;13.10;99.90
56046;DHT22;41913;51.030;3.706;2022-09-27T09:10:56;13.90;99.90
56046;DHT22;41913;51.030;3.706;2022-09-27T09:25:05;19.30;99.90
56046;DHT22;41913;51.030;3.706;2022-09-27T09:27:21;19.60;99.90
56046;DHT22;41913;51.030;3.706;2022-09-27T09:35:05;21.00;98.80
56046;DHT22;41913;51.030;3.706;2022-09-27T09:37:36;21.10;98.20
56046;DHT22;41913;51.030;3.706;2022-09-27T09:42:49;21.80;96.10
56046;DHT22;41913;51.030;3.706;2022-09-27T09:45:18;22.30;95.00
56046;DHT22;41913;51.030;3.706;2022-09-27T09:47:48;21.90;93.60
56046;DHT22;41913;51.030;3.706;2022-09-27T09:53:16;20.60;94.90
56046;DHT22;41913;51.030;3.706;2022-09-27T09:55:45;19.60;94.70
56046;DHT22;41913;51.030;3.706;2022-09-27T09:58:19;19.00;95.30
56046;DHT22;41913;51.030;3.706;2022-09-27T10:00:46;19.00;95.50
56046;DHT22;41913;51.030;3.706;2022-09-27T10:03:13;18.30;95.60
56046;DHT22;41913;51.030;3.706;2022-09-27T10:05:41;17.50;96.20
56046;DHT22;41913;51.030;3.706;2022-09-27T10:08:10;17.00;97.40
56046;DHT22;41913;51.030;3.706;2022-09-27T10:10:38;16.40;98.60
56046;DHT22;41913;51.030;3.706;2022-09-27T10:13:11;15.20;99.10
56046;DHT22;41913;51.030;3.706;2022-09-27T10:18:11;13.70;99.90
56046;DHT22;41913;51.030;3.706;2022-09-27T10:20:39;13.30;99.90
56046;DHT22;41913;51.030;3.706;2022-09-27T10:23:14;13.30;99.90
56046;DHT22;41913;51.030;3.706;2022-09-27T10:25:49;13.50;99.90
56046;DHT22;41913;51.030;3.706;2022-09-27T10:28:34;13.60;99.90
56046;DHT22;41913;51.030;3.706;2022-09-27T10:31:07;14.10;99.90
56046;DHT22;41913;51.030;3.706;2022-09-27T10:33:34;14.70;99.90
56046;DHT22;41913;51.030;3.706;2022-09-27T10:36:02;15.40;99.90
56046;DHT22;41913;51.030;3.706;2022-09-27T10:38:31;16.00;99.90
56046;DHT22;41913;51.030;3.706;2022-09-27T10:41:16;16.80;99.90
56046;DHT22;41913;51.030;3.706;2022-09-27T10:43:43;18.10;99.90
56046;DHT22;41913;51.030;3.706;2022-09-27T10:48:34;19.10;99.20
56046;DHT22;41913;51.030;3.706;2022-09-27T10:51:23;19.70;98.40
56046;DHT22;41913;51.030;3.706;2022-09-27T10:53:46;19.80;98.00
56046;DHT22;41913;51.030;3.706;2022-09-27T10:56:22;19.60;98.60
56046;DHT22;41913;51.030;3.706;2022-09-27T10:58:48;19.00;99.90
56046;DHT22;41913;51.030;3.706;2022-09-27T11:01:15;17.50;99.90
56046;DHT22;41913;51.030;3.706;2022-09-27T11:03:48;17.00;99.90
56046;DHT22;41913;51.030;3.706;2022-09-27T11:08:51;15.70;99.90
56046;DHT22;41913;51.030;3.706;2022-09-27T11:11:23;15.10;99.90
56046;DHT22;41913;51.030;3.706;2022-09-27T11:13:59;15.30;99.90
56046;DHT22;41913;51.030;3.706;2022-09-27T11:26:35;15.30;99.90
56046;DHT22;41913;51.030;3.706;2022-09-27T11:29:18;15.40;99.90
56046;DHT22;41913;51.030;3.706;2022-09-27T11:39:32;15.30;99.90
56046;DHT22;41913;51.030;3.706;2022-09-27T11:50:09;15.50;98.00
56046;DHT22;41913;51.030;3.706;2022-09-27T11:57:50;15.70;98.30
56046;DHT22;41913;51.030;3.706;2022-09-27T12:00:24;15.30;99.90
56046;DHT22;41913;51.030;3.706;2022-09-27T12:10:27;14.60;99.90
56046;DHT22;41913;51.030;3.706;2022-09-27T12:12:54;14.70;99.90
56046;DHT22;41913;51.030;3.706;2022-09-27T12:15:25;14.80;99.90
56046;DHT22;41913;51.030;3.706;2022-09-27T12:17:53;14.90;99.90
56046;DHT22;41913;51.030;3.706;2022-09-27T12:22:52;15.00;99.90
56046;DHT22;41913;51.030;3.706;2022-09-27T12:25:19;15.10;99.90
56046;DHT22;41913;51.030;3.706;2022-09-27T12:27:45;15.10;99.90
56046;DHT22;41913;51.030;3.706;2022-09-27T12:30:13;15.00;99.90
56046;DHT22;41913;51.030;3.706;2022-09-27T12:37:56;15.00;99.90
56046;DHT22;41913;51.030;3.706;2022-09-27T12:43:00;14.90;99.90
56046;DHT22;41913;51.030;3.706;2022-09-27T12:45:34;14.80;99.90
56046;DHT22;41913;51.030;3.706;2022-09-27T12:48:03;14.70;99.90
56046;DHT22;41913;51.030;3.706;2022-09-27T12:50:51;14.80;99.90
56046;DHT22;41913;51.030;3.706;2022-09-27T12:53:20;14.70;99.90
56046;DHT22;41913;51.030;3.706;2022-09-27T13:01:23;14.10;99.90
56046;DHT22;41913;51.030;3.706;2022-09-27T13:08:56;14.30;99.90
56046;DHT22;41913;51.030;3.706;2022-09-27T13:13:55;14.00;99.90
56046;DHT22;41913;51.030;3.706;2022-09-27T13:16:22;14.20;99.90
56046;DHT22;41913;51.030;3.706;2022-09-27T13:18:50;14.50;99.90
56046;DHT22;41913;51.030;3.706;2022-09-27T13:24:01;15.20;99.90
56046;DHT22;41913;51.030;3.706;2022-09-27T13:28:59;15.60;99.90
56046;DHT22;41913;51.030;3.706;2022-09-27T13:31:59;15.70;99.90
56046;DHT22;41913;51.030;3.706;2022-09-27T13:34:43;15.40;99.90
56046;DHT22;41913;51.030;3.706;2022-09-27T13:40:35;15.40;99.90
56046;DHT22;41913;51.030;3.706;2022-09-27T13:42:54;15.30;99.90
56046;DHT22;41913;51.030;3.706;2022-09-27T13:45:23;15.30;99.90
56046;DHT22;41913;51.030;3.706;2022-09-27T13:47:53;15.50;99.90
56046;DHT22;41913;51.030;3.706;2022-09-27T13:50:38;15.70;99.90
56046;DHT22;41913;51.030;3.706;2022-09-27T13:53:54;15.90;99.90
56046;DHT22;41913;51.030;3.706;2022-09-27T13:55:53;15.90;99.90
56046;DHT22;41913;51.030;3.706;2022-09-27T14:01:50;15.40;99.90
56046;DHT22;41913;51.030;3.706;2022-09-27T14:03:50;15.20;99.90
56046;DHT22;41913;51.030;3.706;2022-09-27T14:06:19;15.10;99.90
56046;DHT22;41913;51.030;3.706;2022-09-27T14:08:49;14.90;99.90
56046;DHT22;41913;51.030;3.706;2022-09-27T14:11:27;14.50;99.90
56046;DHT22;41913;51.030;3.706;2022-09-27T14:13:53;14.40;99.90
56046;DHT22;41913;51.030;3.706;2022-09-27T14:16:20;14.60;99.90
56046;DHT22;41913;51.030;3.706;2022-09-27T14:26:49;13.90;99.90
56046;DHT22;41913;51.030;3.706;2022-09-27T14:29:16;13.60;99.90
56046;DHT22;41913;51.030;3.706;2022-09-27T14:31:41;13.60;99.90
56046;DHT22;41913;51.030;3.706;2022-09-27T14:34:07;13.50;99.90
56046;DHT22;41913;51.030;3.706;2022-09-27T14:36:37;13.60;99.90
56046;DHT22;41913;51.030;3.706;2022-09-27T14:39:22;13.80;99.90
56046;DHT22;41913;51.030;3.706;2022-09-27T14:41:48;13.70;99.90
56046;DHT22;41913;51.030;3.706;2022-09-27T14:44:15;13.90;99.90
56046;DHT22;41913;51.030;3.706;2022-09-27T14:46:44;13.90;99.90
56046;DHT22;41913;51.030;3.706;2022-09-27T14:49:23;13.90;99.90
56046;DHT22;41913;51.030;3.706;2022-09-27T14:51:52;14.00;99.90
56046;DHT22;41913;51.030;3.706;2022-09-27T14:54:19;14.00;99.90
56046;DHT22;41913;51.030;3.706;2022-09-27T14:56:46;14.00;99.90
56046;DHT22;41913;51.030;3.706;2022-09-27T14:59:21;14.00;99.90
56046;DHT22;41913;51.030;3.706;2022-09-27T15:01:54;14.00;99.90
56046;DHT22;41913;51.030;3.706;2022-09-27T15:04:20;14.00;99.90
56046;DHT22;41913;51.030;3.706;2022-09-27T15:06:47;14.10;99.90
56046;DHT22;41913;51.030;3.706;2022-09-27T15:09:15;14.00;99.90
56046;DHT22;41913;51.030;3.706;2022-09-27T15:11:43;14.00;99.90
56046;DHT22;41913;51.030;3.706;2022-09-27T15:14:10;14.00;99.90
56046;DHT22;41913;51.030;3.706;2022-09-27T15:16:41;14.00;99.90
56046;DHT22;41913;51.030;3.706;2022-09-27T15:19:14;14.00;99.90
56046;DHT22;41913;51.030;3.706;2022-09-27T15:21:43;14.30;99.90
56046;DHT22;41913;51.030;3.706;2022-09-27T15:27:00;15.50;99.90
56046;DHT22;41913;51.030;3.706;2022-09-27T15:29:26;16.00;99.90
56046;DHT22;41913;51.030;3.706;2022-09-27T15:31:59;16.00;99.90
56046;DHT22;41913;51.030;3.706;2022-09-27T15:34:27;16.10;99.90
56046;DHT22;41913;51.030;3.706;2022-09-27T15:36:57;15.90;99.90
56046;DHT22;41913;51.030;3.706;2022-09-27T15:39:37;15.70;99.90
56046;DHT22;41913;51.030;3.706;2022-09-27T15:42:11;15.40;99.90
56046;DHT22;41913;51.030;3.706;2022-09-27T15:49:51;15.30;99.90
56046;DHT22;41913;51.030;3.706;2022-09-27T15:52:51;15.20;99.90
56046;DHT22;41913;51.030;3.706;2022-09-27T15:55:10;15.30;99.90
56046;DHT22;41913;51.030;3.706;2022-09-27T15:57:38;15.10;99.90
56046;DHT22;41913;51.030;3.706;2022-09-27T16:00:09;15.10;99.90
56046;DHT22;41913;51.030;3.706;2022-09-27T16:02:37;15.20;99.90
56046;DHT22;41913;51.030;3.706;2022-09-27T16:05:03;15.30;99.90
56046;DHT22;41913;51.030;3.706;2022-09-27T16:07:29;15.30;99.90
56046;DHT22;41913;51.030;3.706;2022-09-27T16:09:55;15.30;99.90
56046;DHT22;41913;51.030;3.706;2022-09-27T16:12:21;15.30;99.90
56046;DHT22;41913;51.030;3.706;2022-09-27T16:14:46;15.10;99.90
56046;DHT22;41913;51.030;3.706;2022-09-27T16:17:12;15.10;99.90
56046;DHT22;41913;51.030;3.706;2022-09-27T16:19:38;15.00;99.90
56046;DHT22;41913;51.030;3.706;2022-09-27T16:22:04;15.00;99.90
56046;DHT22;41913;51.030;3.706;2022-09-27T16:24:30;15.00;99.90
56046;DHT22;41913;51.030;3.706;2022-09-27T16:26:56;15.00;99.90
56046;DHT22;41913;51.030;3.706;2022-09-27T16:29:22;15.00;99.90
56046;DHT22;41913;51.030;3.706;2022-09-27T16:31:47;15.00;99.90
56046;DHT22;41913;51.030;3.706;2022-09-27T16:34:13;14.90;99.90
56046;DHT22;41913;51.030;3.706;2022-09-27T16:36:39;14.90;99.90
56046;DHT22;41913;51.030;3.706;2022-09-27T16:39:06;14.80;99.90
56046;DHT22;41913;51.030;3.706;2022-09-27T16:41:32;14.70;99.90
56046;DHT22;41913;51.030;3.706;2022-09-27T16:43:58;14.50;99.90
56046;DHT22;41913;51.030;3.706;2022-09-27T16:46:29;14.40;99.90
56046;DHT22;41913;51.030;3.706;2022-09-27T16:48:57;14.30;99.90
56046;DHT22;41913;51.030;3.706;2022-09-27T16:51:22;13.90;99.90
56046;DHT22;41913;51.030;3.706;2022-09-27T16:54:07;13.60;99.90
56046;DHT22;41913;51.030;3.706;2022-09-27T16:56:33;13.70;99.90
56046;DHT22;41913;51.030;3.706;2022-09-27T16:58:59;13.50;99.90
56046;DHT22;41913;51.030;3.706;2022-09-27T17:01:27;13.30;99.90
56046;DHT22;41913;51.030;3.706;2022-09-27T17:03:54;13.30;99.90
56046;DHT22;41913;51.030;3.706;2022-09-27T17:06:22;13.40;99.90
56046;DHT22;41913;51.030;3.706;2022-09-27T17:08:48;13.30;99.90
56046;DHT22;41913;51.030;3.706;2022-09-27T17:11:14;13.10;99.90
56046;DHT22;41913;51.030;3.706;2022-09-27T17:13:40;12.90;99.90
56046;DHT22;41913;51.030;3.706;2022-09-27T17:16:06;12.80;99.90
56046;DHT22;41913;51.030;3.706;2022-09-27T17:18:32;12.70;99.90
56046;DHT22;41913;51.030;3.706;2022-09-27T17:21:01;12.60;99.90
56046;DHT22;41913;51.030;3.706;2022-09-27T17:23:28;12.80;99.90
56046;DHT22;41913;51.030;3.706;2022-09-27T17:25:53;12.70;99.90
56046;DHT22;41913;51.030;3.706;2022-09-27T17:28:21;12.60;99.90
56046;DHT22;41913;51.030;3.706;2022-09-27T17:30:46;12.60;99.90
56046;DHT22;41913;51.030;3.706;2022-09-27T17:33:12;12.40;99.90
56046;DHT22;41913;51.030;3.706;2022-09-27T17:35:37;12.70;99.90
56046;DHT22;41913;51.030;3.706;2022-09-27T17:38:03;12.60;99.90
56046;DHT22;41913;51.030;3.706;2022-09-27T17:40:28;12.70;99.90
56046;DHT22;41913;51.030;3.706;2022-09-27T17:42:55;12.80;99.90
56046;DHT22;41913;51.030;3.706;2022-09-27T17:45:21;12.90;99.90
56046;DHT22;41913;51.030;3.706;2022-09-27T17:47:46;12.80;99.90
56046;DHT22;41913;51.030;3.706;2022-09-27T17:50:30;12.90;99.90
56046;DHT22;41913;51.030;3.706;2022-09-27T17:52:56;12.80;99.90
56046;DHT22;41913;51.030;3.706;2022-09-27T17:55:25;12.80;99.90
56046;DHT22;41913;51.030;3.706;2022-09-27T17:57:52;12.80;99.90
56046;DHT22;41913;51.030;3.706;2022-09-27T18:00:18;12.50;99.90
56046;DHT22;41913;51.030;3.706;2022-09-27T18:02:44;12.60;99.90
56046;DHT22;41913;51.030;3.706;2022-09-27T18:05:10;12.70;99.90
56046;DHT22;41913;51.030;3.706;2022-09-27T18:07:37;12.50;99.90
56046;DHT22;41913;51.030;3.706;2022-09-27T18:10:03;12.50;99.90
56046;DHT22;41913;51.030;3.706;2022-09-27T18:12:28;12.50;99.90
56046;DHT22;41913;51.030;3.706;2022-09-27T18:14:56;12.50;99.90
56046;DHT22;41913;51.030;3.706;2022-09-27T18:17:22;12.30;99.90
56046;DHT22;41913;51.030;3.706;2022-09-27T18:19:50;12.20;99.90
56046;DHT22;41913;51.030;3.706;2022-09-27T18:22:18;12.30;99.90
56046;DHT22;41913;51.030;3.706;2022-09-27T18:24:44;12.20;99.90
56046;DHT22;41913;51.030;3.706;2022-09-27T18:27:10;12.00;99.90